createdAt,value
2018-09-19T00:00:58.679Z,63.70
2018-09-19T00:06:01.798Z,64.20
2018-09-19T00:11:05.958Z,64.30
2018-09-19T00:16:09.098Z,65.00
2018-09-19T00:21:12.216Z,64.50
2018-09-19T00:26:15.333Z,64.60
2018-09-19T00:31:18.446Z,64.60
2018-09-19T00:36:21.560Z,65.40
2018-09-19T00:41:24.681Z,65.20
2018-09-19T00:46:27.791Z,65.70
2018-09-19T00:51:30.984Z,67.60
2018-09-19T00:56:34.081Z,67.90
2018-09-19T01:01:37.197Z,68.00
2018-09-19T01:06:40.421Z,68.50
2018-09-19T01:11:43.529Z,70.00
2018-09-19T01:16:46.642Z,69.10
2018-09-19T01:21:49.940Z,69.20
2018-09-19T01:26:53.059Z,69.50
2018-09-19T01:31:56.173Z,70.10
2018-09-19T01:36:59.399Z,69.80
2018-09-19T01:42:02.518Z,69.40
2018-09-19T01:47:05.709Z,70.00
2018-09-19T01:52:08.831Z,69.60
2018-09-19T01:57:11.988Z,69.50
2018-09-19T02:02:15.114Z,70.00
2018-09-19T02:07:18.231Z,69.70
2018-09-19T02:12:21.344Z,70.10
2018-09-19T02:17:24.468Z,69.90
2018-09-19T02:22:27.586Z,70.60
2018-09-19T02:27:30.699Z,71.70
2018-09-19T02:32:33.824Z,71.30
2018-09-19T02:37:36.933Z,72.00
2018-09-19T02:42:40.058Z,71.80
2018-09-19T02:47:43.279Z,71.80
2018-09-19T02:52:50.596Z,71.60
2018-09-19T02:57:53.772Z,71.20
2018-09-19T03:02:56.892Z,71.40
2018-09-19T03:08:00.000Z,72.20
2018-09-19T03:13:03.121Z,72.70
2018-09-19T03:18:06.238Z,73.00
2018-09-19T03:23:09.343Z,73.60
2018-09-19T03:28:12.449Z,74.40
2018-09-19T03:33:15.604Z,74.90
2018-09-19T03:38:18.716Z,75.00
2018-09-19T03:43:21.832Z,74.90
2018-09-19T03:48:24.939Z,74.70
2018-09-19T03:53:28.061Z,74.50
2018-09-19T03:58:31.177Z,75.60
2018-09-19T04:03:34.375Z,75.90
2018-09-19T04:08:37.500Z,75.30
2018-09-19T04:13:40.611Z,75.80
2018-09-19T04:18:43.740Z,75.80
2018-09-19T04:23:46.898Z,75.70
2018-09-19T04:28:49.982Z,75.40
2018-09-19T04:33:53.090Z,76.10
2018-09-19T04:38:56.212Z,76.00
2018-09-19T04:43:59.330Z,76.30
2018-09-19T04:49:02.449Z,76.50
2018-09-19T04:54:05.636Z,76.80
2018-09-19T04:59:08.748Z,77.20
2018-09-19T05:04:11.869Z,77.50
2018-09-19T05:09:14.987Z,77.30
2018-09-19T05:14:18.104Z,77.10
2018-09-19T05:19:21.216Z,77.30
2018-09-19T05:24:24.325Z,78.30
2018-09-19T05:29:27.437Z,77.90
2018-09-19T05:34:30.553Z,77.90
2018-09-19T05:39:33.679Z,77.80
2018-09-19T05:44:36.785Z,77.70
2018-09-19T05:49:39.888Z,78.10
2018-09-19T05:54:42.991Z,78.50
2018-09-19T05:59:46.103Z,78.00
2018-09-19T06:04:49.252Z,79.10
2018-09-19T06:09:52.348Z,79.30
2018-09-19T06:14:55.460Z,79.40
2018-09-19T06:19:58.576Z,79.90
2018-09-19T06:25:01.704Z,79.70
2018-09-19T06:30:05.818Z,79.50
2018-09-19T06:35:08.901Z,78.80
2018-09-19T06:40:12.142Z,79.80
2018-09-19T06:45:15.142Z,78.90
2018-09-19T06:50:18.256Z,80.30
2018-09-19T06:55:21.389Z,80.40
2018-09-19T07:00:24.536Z,81.40
2018-09-19T07:05:27.648Z,82.00
2018-09-19T07:10:30.762Z,81.10
2018-09-19T07:15:33.873Z,81.40
2018-09-19T07:20:36.988Z,81.90
2018-09-19T07:25:40.096Z,82.10
2018-09-19T07:30:43.203Z,82.10
2018-09-19T07:35:46.314Z,82.00
2018-09-19T07:40:49.412Z,81.40
2018-09-19T07:45:52.559Z,81.10
2018-09-19T07:50:55.675Z,81.60
2018-09-19T07:55:58.803Z,82.00
2018-09-19T08:01:02.002Z,81.30
2018-09-19T08:06:05.932Z,81.60
2018-09-19T08:11:09.036Z,80.70
2018-09-19T08:16:12.140Z,80.90
2018-09-19T08:21:15.248Z,80.80
2018-09-19T08:26:18.362Z,80.20
2018-09-19T08:31:21.465Z,80.00
2018-09-19T08:36:24.564Z,79.90
2018-09-19T08:41:27.719Z,79.50
2018-09-19T08:46:30.828Z,79.20
2018-09-19T08:51:33.956Z,79.10
2018-09-19T08:56:37.056Z,79.10
2018-09-19T09:01:40.168Z,78.90
2018-09-19T09:06:43.272Z,78.50
2018-09-19T09:11:46.388Z,78.30
2018-09-19T09:16:49.504Z,78.70
2018-09-19T09:21:52.610Z,78.30
2018-09-19T09:26:55.741Z,78.50
2018-09-19T09:31:58.808Z,78.60
2018-09-19T09:37:01.918Z,78.90
2018-09-19T09:42:05.783Z,78.20
2018-09-19T09:47:08.892Z,78.10
2018-09-19T09:52:12.006Z,78.40
2018-09-19T09:57:15.112Z,78.70
2018-09-19T10:02:18.227Z,77.90
2018-09-19T10:07:21.348Z,78.00
2018-09-19T10:12:24.592Z,77.00
2018-09-19T10:17:27.697Z,76.60
2018-09-19T10:22:30.800Z,76.30
2018-09-19T10:27:33.948Z,76.00
2018-09-19T10:32:37.082Z,75.60
2018-09-19T10:37:40.194Z,75.40
2018-09-19T10:42:43.758Z,75.20
2018-09-19T10:47:46.850Z,74.90
2018-09-19T10:52:50.009Z,74.60
2018-09-19T10:57:53.112Z,74.40
2018-09-19T11:02:56.225Z,73.80
2018-09-19T11:07:59.330Z,72.90
2018-09-19T11:13:02.456Z,72.50
2018-09-19T11:18:05.576Z,71.80
2018-09-19T11:23:08.676Z,70.90
2018-09-19T11:28:11.792Z,70.50
2018-09-19T11:33:14.898Z,70.10
2018-09-19T11:38:17.996Z,69.30
2018-09-19T11:43:21.115Z,68.50
2018-09-19T11:48:24.231Z,68.20
2018-09-19T11:53:29.289Z,67.70
2018-09-19T11:58:32.403Z,66.50
2018-09-19T12:03:35.511Z,65.20
2018-09-19T12:08:38.617Z,64.40
2018-09-19T12:13:41.725Z,63.30
2018-09-19T12:18:44.824Z,63.60
2018-09-19T12:23:47.935Z,63.70
2018-09-19T12:28:51.043Z,62.80
2018-09-19T12:33:54.154Z,61.80
2018-09-19T12:38:57.260Z,61.80
2018-09-19T12:44:00.363Z,61.80
2018-09-19T12:49:03.480Z,60.90
2018-09-19T12:54:06.725Z,60.40
2018-09-19T12:59:09.895Z,61.30
2018-09-19T13:04:13.007Z,61.30
2018-09-19T13:09:16.124Z,60.80
2018-09-19T13:14:19.232Z,59.90
2018-09-19T13:19:22.339Z,59.90
2018-09-19T13:24:25.456Z,58.80
2018-09-19T13:29:28.572Z,59.00
2018-09-19T13:34:31.684Z,59.30
2018-09-19T13:39:34.814Z,58.10
2018-09-19T13:44:37.984Z,58.60
2018-09-19T13:49:43.685Z,59.00
2018-09-19T13:54:46.798Z,57.90
2018-09-19T13:59:49.908Z,58.20
2018-09-19T14:04:53.084Z,58.00
2018-09-19T14:09:56.318Z,58.90
2018-09-19T14:14:59.420Z,57.90
2018-09-19T14:20:02.595Z,57.80
2018-09-19T14:25:05.725Z,57.00
2018-09-19T14:30:08.861Z,56.40
2018-09-19T14:35:12.024Z,56.40
2018-09-19T14:40:15.147Z,56.50
2018-09-19T14:45:18.286Z,55.40
2018-09-19T14:50:21.405Z,54.20
2018-09-19T14:55:24.564Z,54.60
2018-09-19T15:00:27.768Z,54.40
2018-09-19T15:05:30.824Z,54.80
2018-09-19T15:10:33.944Z,55.10
2018-09-19T15:15:37.369Z,55.20
2018-09-19T15:20:40.592Z,55.60
2018-09-19T15:25:43.754Z,55.10
2018-09-19T15:30:47.753Z,55.10
2018-09-19T15:35:50.860Z,55.10
2018-09-19T15:40:54.014Z,55.40
2018-09-19T15:45:57.141Z,56.10
2018-09-19T15:51:00.256Z,56.00
2018-09-19T15:56:03.396Z,56.60
2018-09-19T16:01:06.504Z,57.00
2018-09-19T16:06:09.662Z,57.50
2018-09-19T16:11:12.764Z,57.40
2018-09-19T16:16:16.066Z,57.10
2018-09-19T16:21:19.178Z,57.50
2018-09-19T16:26:22.310Z,58.00
2018-09-19T16:31:25.433Z,58.60
2018-09-19T16:36:28.538Z,58.70
2018-09-19T16:41:31.668Z,59.20
2018-09-19T16:46:35.217Z,59.70
2018-09-19T16:51:38.328Z,60.10
2018-09-19T16:56:41.433Z,59.90
2018-09-19T17:01:44.541Z,60.10
2018-09-19T17:06:47.656Z,60.70
2018-09-19T17:11:50.759Z,60.80
2018-09-19T17:16:53.868Z,60.90
2018-09-19T17:21:56.975Z,60.80
2018-09-19T17:27:00.095Z,61.80
2018-09-19T17:32:03.197Z,62.10
2018-09-19T17:37:06.312Z,62.90
2018-09-19T17:42:09.424Z,63.00
2018-09-19T17:47:12.541Z,64.10
2018-09-19T17:52:15.652Z,64.70
2018-09-19T17:57:19.183Z,65.40
2018-09-19T18:02:22.280Z,65.90
2018-09-19T18:07:25.379Z,66.40
2018-09-19T18:12:28.556Z,66.80
2018-09-19T18:17:31.678Z,67.00
2018-09-19T18:22:34.820Z,67.20
2018-09-19T18:27:37.933Z,67.40
2018-09-19T18:32:41.040Z,67.70
2018-09-19T18:37:44.161Z,67.90
2018-09-19T18:42:47.265Z,68.40
2018-09-19T18:47:50.385Z,68.50
2018-09-19T18:52:53.493Z,69.00
2018-09-19T18:57:56.600Z,69.10
2018-09-19T19:02:59.712Z,69.30
2018-09-19T19:08:02.858Z,69.50
2018-09-19T19:13:06.171Z,69.60
2018-09-19T19:18:09.280Z,69.90
2018-09-19T19:23:12.389Z,70.20
2018-09-19T19:28:15.500Z,70.30
2018-09-19T19:33:18.613Z,70.50
2018-09-19T19:38:21.740Z,70.80
2018-09-19T19:43:24.845Z,71.10
2018-09-19T19:48:27.960Z,71.40
2018-09-19T19:53:31.077Z,71.60
2018-09-19T19:58:34.340Z,71.90
2018-09-19T20:03:37.433Z,72.00
2018-09-19T20:08:40.562Z,72.10
2018-09-19T20:13:43.677Z,72.40
2018-09-19T20:18:46.789Z,72.50
2018-09-19T20:23:49.892Z,72.80
2018-09-19T20:28:52.996Z,72.80
2018-09-19T20:33:56.160Z,73.30
2018-09-19T20:38:59.216Z,73.20
2018-09-19T20:44:02.339Z,73.30
2018-09-19T20:49:05.469Z,73.40
2018-09-19T20:54:08.588Z,73.60
2018-09-19T20:59:11.712Z,74.00
2018-09-19T21:04:14.865Z,74.20
2018-09-19T21:09:17.943Z,74.00
2018-09-19T21:14:21.221Z,74.40
2018-09-19T21:19:24.325Z,74.50
2018-09-19T21:24:27.455Z,74.80
2018-09-19T21:34:38.378Z,74.80
2018-09-19T21:39:41.480Z,74.80
2018-09-19T21:44:44.590Z,75.00
2018-09-19T21:49:47.692Z,75.10
2018-09-19T21:54:50.832Z,74.90
2018-09-19T21:59:53.946Z,75.20
2018-09-19T22:04:57.065Z,74.70
2018-09-19T22:10:00.188Z,75.10
2018-09-19T22:15:03.284Z,75.50
2018-09-19T22:20:06.392Z,75.50
2018-09-19T22:25:09.504Z,75.00
2018-09-19T22:30:12.609Z,75.30
2018-09-19T22:35:15.728Z,75.00
2018-09-19T22:40:18.840Z,75.40
2018-09-19T22:45:21.948Z,75.30
2018-09-19T22:50:25.061Z,75.40
2018-09-19T22:55:28.172Z,75.40
2018-09-19T23:00:31.281Z,75.40
2018-09-19T23:05:34.384Z,75.50
2018-09-19T23:10:37.488Z,75.70
2018-09-19T23:15:40.598Z,76.10
2018-09-19T23:20:43.736Z,75.70
2018-09-19T23:25:46.841Z,76.40
2018-09-19T23:30:50.150Z,76.50
2018-09-19T23:35:53.228Z,76.30
2018-09-19T23:40:56.332Z,76.20
2018-09-19T23:45:59.452Z,76.50
2018-09-19T23:51:02.564Z,76.60
2018-09-19T23:56:05.676Z,76.80
